Terminal Aerodrome Forecast
Issued by NWS

Home | Current Version | Previous Version | Text Only | Print | Product List | Glossary On
Versions: 1 2 3 4 5 6 7 8 9 10 11 12 13
000
FTUS42 TJSJ 250500
TAFISX
TAF
TISX 250520Z 2506/2606 05005KT P6SM VCSH SCT030
      TEMPO 2506/2510 07014G22KT SHRA BKN030
     FM251300 07015G22KT P6SM VCSH SCT030
     FM252300 05007KT P6SM VCSH FEW030
      AMD NOT SKED=

USA.gov is the U.S. government's official web portal to all federal, state and local government web resources and services.